Time;durP1;ratioP1;P1;durP2;ratioP2;P2;SDS_P1;SDS_P2;PMS_P1;PMS_P2;Temp;Humidity;BMP_temperature;BMP_pressure;BME280_temperature;BME280_humidity;BME280_pressure;Samples;Min_cycle;Max_cycle;Signal;HPM_P1;HPM_P2
2022/11/12 00:00:17;;;;;;;12.87;9.03;;;7.90;99.90;;;;;;5009817;28;20541;-65
2022/11/12 00:02:42;;;;;;;13.57;9.67;;;7.90;99.90;;;;;;5035598;28;20573;-66
2022/11/12 00:05:08;;;;;;;12.20;8.73;;;7.90;99.90;;;;;;5048896;28;20179;-65
2022/11/12 00:07:34;;;;;;;12.07;8.63;;;7.80;99.90;;;;;;5043836;28;20724;-65
2022/11/12 00:10:00;;;;;;;15.67;9.70;;;7.80;99.90;;;;;;5012639;28;20200;-66
2022/11/12 00:12:25;;;;;;;14.87;8.47;;;7.80;99.90;;;;;;5015823;28;20191;-65
2022/11/12 00:14:51;;;;;;;13.00;8.90;;;7.80;99.90;;;;;;5025201;28;20542;-65
2022/11/12 00:17:17;;;;;;;14.53;9.53;;;7.80;99.90;;;;;;5031568;28;20257;-66
2022/11/12 00:19:42;;;;;;;13.20;9.43;;;7.80;99.90;;;;;;5008971;28;20266;-66
2022/11/12 00:22:08;;;;;;;14.70;9.43;;;7.70;99.90;;;;;;5009319;28;20601;-65
2022/11/12 00:24:34;;;;;;;13.17;8.87;;;7.70;99.90;;;;;;5014847;28;20191;-65
2022/11/12 00:26:59;;;;;;;13.93;10.40;;;7.70;99.90;;;;;;5031910;28;20221;-65
2022/11/12 00:29:25;;;;;;;12.33;8.60;;;7.70;99.90;;;;;;5031521;28;20256;-64
2022/11/12 00:31:50;;;;;;;10.07;8.43;;;7.70;99.90;;;;;;5023421;28;20194;-64
2022/11/12 00:34:16;;;;;;;12.60;8.67;;;7.70;99.90;;;;;;5019900;28;20245;-65
2022/11/12 00:36:42;;;;;;;13.40;9.20;;;7.70;99.90;;;;;;5008829;28;20629;-67
2022/11/12 00:39:07;;;;;;;12.50;9.10;;;7.70;99.90;;;;;;5031316;28;20636;-65
2022/11/12 00:41:33;;;;;;;13.33;9.37;;;7.70;99.90;;;;;;5038974;28;20245;-65
2022/11/12 00:43:59;;;;;;;12.37;8.47;;;7.60;99.90;;;;;;5027229;28;20190;-66
2022/11/12 00:46:24;;;;;;;15.13;9.10;;;7.60;99.90;;;;;;5022273;28;20194;-66
2022/11/12 00:48:50;;;;;;;13.37;9.30;;;7.60;99.90;;;;;;5032079;28;20281;-66
2022/11/12 00:51:15;;;;;;;12.13;8.30;;;7.60;99.90;;;;;;5021951;28;20671;-66
2022/11/12 00:53:41;;;;;;;10.60;8.03;;;7.60;99.90;;;;;;5028639;28;20210;-65
2022/11/12 00:56:07;;;;;;;13.77;8.70;;;7.50;99.90;;;;;;5021873;28;20190;-65
2022/11/12 00:58:34;;;;;;;17.37;10.50;;;7.50;99.90;;;;;;5026111;28;20193;-64
2022/11/12 01:01:09;;;;;;;20.03;10.20;;;7.50;99.90;;;;;;5023668;28;20182;-65
2022/11/12 01:03:36;;;;;;;9.63;8.07;;;7.40;99.90;;;;;;5032282;28;20590;-64
2022/11/12 01:06:07;;;;;;;14.67;10.20;;;7.40;99.90;;;;;;5030159;28;20183;-66
2022/11/12 01:08:34;;;;;;;15.17;10.13;;;7.40;99.90;;;;;;5027595;28;20206;-65
2022/11/12 01:11:12;;;;;;;12.03;9.43;;;7.40;99.90;;;;;;5027965;28;20630;-66
2022/11/12 01:13:40;;;;;;;13.60;9.30;;;7.40;99.90;;;;;;5026434;28;20179;-66
2022/11/12 01:16:08;;;;;;;15.40;9.17;;;7.40;99.90;;;;;;5026667;28;20179;-66
2022/11/12 01:18:33;;;;;;;13.77;9.37;;;7.30;99.90;;;;;;5025948;28;20195;-65
2022/11/12 01:21:01;;;;;;;13.37;10.00;;;7.30;99.90;;;;;;5031015;28;20197;-66
2022/11/12 01:23:27;;;;;;;15.73;10.77;;;7.20;99.90;;;;;;5029395;28;20266;-66
2022/11/12 01:25:54;;;;;;;14.87;9.73;;;7.20;99.90;;;;;;5022592;28;20279;-66
2022/11/12 01:28:20;;;;;;;11.17;8.47;;;7.20;99.90;;;;;;5024270;28;20235;-67
2022/11/12 01:30:46;;;;;;;15.70;9.70;;;7.20;99.90;;;;;;5001784;28;20201;-66
2022/11/12 01:33:11;;;;;;;13.33;9.17;;;7.20;99.90;;;;;;5015007;28;20187;-65
2022/11/12 01:35:37;;;;;;;12.67;9.33;;;7.10;99.90;;;;;;5031071;28;20195;-65
2022/11/12 01:38:02;;;;;;;13.43;10.17;;;7.10;99.90;;;;;;5013282;28;20194;-65
2022/11/12 01:40:28;;;;;;;11.93;9.43;;;7.10;99.90;;;;;;5019304;28;20265;-65
2022/11/12 01:42:54;;;;;;;11.23;8.87;;;7.10;99.90;;;;;;5018673;28;20191;-65
2022/11/12 01:45:21;;;;;;;18.07;9.00;;;7.10;99.90;;;;;;5030139;28;20786;-66
2022/11/12 01:47:48;;;;;;;14.47;10.50;;;7.00;99.90;;;;;;5025163;28;20256;-65
2022/11/12 01:50:34;;;;;;;13.00;9.13;;;7.10;99.90;;;;;;5018886;28;20198;-66
2022/11/12 01:53:09;;;;;;;14.27;9.83;;;7.00;99.90;;;;;;5032164;28;20182;-65
2022/11/12 01:55:36;;;;;;;16.33;9.93;;;7.00;99.90;;;;;;5029488;28;20189;-67
2022/11/12 01:58:10;;;;;;;12.47;9.53;;;7.10;99.90;;;;;;5031240;28;20529;-66
2022/11/12 02:00:36;;;;;;;14.50;9.30;;;7.10;99.90;;;;;;5027048;28;20175;-66
2022/11/12 02:03:08;;;;;;;15.40;9.90;;;7.00;99.90;;;;;;4999961;28;20184;-66
2022/11/12 02:05:36;;;;;;;13.53;8.63;;;7.00;99.90;;;;;;5030891;28;20632;-65
2022/11/12 02:08:03;;;;;;;19.47;11.03;;;7.00;99.90;;;;;;5030617;28;20213;-65
2022/11/12 02:10:29;;;;;;;15.30;11.03;;;7.00;99.90;;;;;;5030845;28;20191;-65
2022/11/12 02:15:40;;;;;;;16.77;10.57;;;7.00;99.90;;;;;;5022179;28;20695;-65
2022/11/12 02:18:07;;;;;;;15.63;10.20;;;6.90;99.90;;;;;;5024003;28;20684;-66
2022/11/12 02:20:34;;;;;;;15.10;9.30;;;6.90;99.90;;;;;;5027612;28;20195;-65
2022/11/12 02:23:00;;;;;;;13.80;10.33;;;6.90;99.90;;;;;;5029443;28;20198;-65
2022/11/12 02:25:27;;;;;;;14.13;9.63;;;6.90;99.90;;;;;;5016779;28;20187;-65
2022/11/12 02:27:54;;;;;;;16.40;10.07;;;6.90;99.90;;;;;;5031156;28;20906;-66
2022/11/12 02:30:45;;;;;;;12.93;9.83;;;6.90;99.90;;;;;;5031435;28;20226;-65
2022/11/12 02:33:10;;;;;;;17.00;8.90;;;6.90;99.90;;;;;;5029129;28;20210;-65
2022/11/12 02:35:36;;;;;;;15.20;9.50;;;6.80;99.90;;;;;;5025270;28;20187;-66
2022/11/12 02:38:03;;;;;;;14.20;9.10;;;6.80;99.90;;;;;;5032599;28;20179;-65
2022/11/12 02:40:29;;;;;;;13.47;8.93;;;6.90;99.90;;;;;;5024995;28;20270;-66
2022/11/12 02:42:55;;;;;;;12.43;9.33;;;6.80;99.90;;;;;;5030373;28;20727;-64
2022/11/12 02:45:20;;;;;;;14.90;10.40;;;6.90;99.90;;;;;;5023194;28;20178;-65
2022/11/12 02:47:46;;;;;;;21.97;11.30;;;6.80;99.90;;;;;;5027885;28;20222;-66
2022/11/12 02:50:12;;;;;;;15.97;9.53;;;6.80;99.90;;;;;;4990306;28;20192;-65
2022/11/12 02:52:41;;;;;;;13.00;9.30;;;6.70;99.90;;;;;;5024701;28;20229;-65
2022/11/12 02:55:09;;;;;;;16.50;10.13;;;6.70;99.90;;;;;;5014474;28;20178;-64
2022/11/12 02:57:35;;;;;;;16.27;10.27;;;6.70;99.90;;;;;;5026890;28;20193;-65
2022/11/12 03:00:03;;;;;;;12.20;9.53;;;6.70;99.90;;;;;;5040830;28;20193;-64
2022/11/12 03:02:29;;;;;;;15.53;10.33;;;6.80;99.90;;;;;;5033138;28;20266;-65
2022/11/12 03:04:54;;;;;;;17.27;9.70;;;6.80;99.90;;;;;;5013584;28;20271;-65
2022/11/12 03:07:20;;;;;;;12.57;9.07;;;6.80;99.90;;;;;;5027804;28;20693;-66
2022/11/12 03:09:45;;;;;;;22.37;10.00;;;6.70;99.90;;;;;;5015801;28;20209;-65
2022/11/12 03:12:11;;;;;;;15.63;9.90;;;6.80;99.90;;;;;;5019061;28;20191;-68
2022/11/12 03:14:37;;;;;;;15.27;10.53;;;6.70;99.90;;;;;;5024610;28;20640;-65
2022/11/12 03:17:03;;;;;;;11.33;9.20;;;6.70;99.90;;;;;;5034889;28;20217;-64
2022/11/12 03:19:28;;;;;;;10.13;8.33;;;6.80;99.90;;;;;;5016338;28;20214;-64
2022/11/12 03:21:54;;;;;;;13.17;9.13;;;6.70;99.90;;;;;;5013197;28;20183;-64
2022/11/12 03:24:19;;;;;;;13.60;10.07;;;6.60;99.90;;;;;;5026785;28;20207;-64
2022/11/12 03:26:45;;;;;;;14.63;9.90;;;6.50;99.90;;;;;;5023615;28;20246;-64
2022/11/12 03:29:11;;;;;;;11.27;9.60;;;6.50;99.90;;;;;;5031606;28;20217;-64
2022/11/12 03:31:37;;;;;;;11.70;8.93;;;6.50;99.90;;;;;;4998714;28;20313;-64
2022/11/12 03:34:02;;;;;;;16.30;10.67;;;6.50;99.90;;;;;;5016489;28;20190;-64
2022/11/12 03:36:28;;;;;;;10.57;9.30;;;6.50;99.90;;;;;;5032473;28;20186;-64
2022/11/12 03:38:54;;;;;;;15.60;9.33;;;6.50;99.90;;;;;;5034078;28;20186;-64
2022/11/12 03:41:19;;;;;;;14.50;10.40;;;6.40;99.90;;;;;;5032615;28;20236;-65
2022/11/12 03:43:45;;;;;;;14.13;9.83;;;6.40;99.90;;;;;;5033411;28;20639;-64
2022/11/12 03:46:10;;;;;;;12.70;9.60;;;6.30;99.90;;;;;;5019569;28;20196;-64
2022/11/12 03:48:37;;;;;;;13.63;9.83;;;6.30;99.90;;;;;;5031817;28;20206;-64
2022/11/12 03:51:02;;;;;;;20.63;10.83;;;6.30;99.90;;;;;;5034294;28;20195;-64
2022/11/12 03:53:28;;;;;;;15.90;10.90;;;6.30;99.90;;;;;;5025635;28;20542;-65
2022/11/12 03:55:54;;;;;;;12.93;9.60;;;6.30;99.90;;;;;;5021380;28;20209;-64
2022/11/12 03:58:19;;;;;;;11.87;9.47;;;6.30;99.90;;;;;;5027999;28;20203;-64
2022/11/12 04:00:45;;;;;;;12.00;8.43;;;6.40;99.90;;;;;;5026319;28;20663;-65
2022/11/12 04:03:11;;;;;;;14.67;10.03;;;6.40;99.90;;;;;;5032093;28;20225;-65
2022/11/12 04:08:34;;;;;;;15.53;9.57;;;6.40;99.90;;;;;;5010734;28;20722;-65
2022/11/12 04:11:04;;;;;;;12.77;9.57;;;6.30;99.90;;;;;;5021682;28;20385;-65
2022/11/12 04:13:30;;;;;;;18.13;9.87;;;6.30;99.90;;;;;;5027821;28;20278;-65
2022/11/12 04:21:57;;;;;;;14.37;9.97;;;6.30;99.90;;;;;;5032639;28;20186;-65
2022/11/12 04:27:16;;;;;;;13.33;9.13;;;6.20;99.90;;;;;;5018112;28;20614;-66
2022/11/12 04:32:28;;;;;;;12.10;8.73;;;6.20;99.90;;;;;;5021170;28;20240;-65
2022/11/12 04:34:54;;;;;;;11.27;8.17;;;6.30;99.90;;;;;;5011786;28;20183;-65
2022/11/12 04:37:21;;;;;;;13.00;8.77;;;6.50;99.90;;;;;;5026095;28;20663;-65
2022/11/12 04:39:46;;;;;;;12.97;8.27;;;6.40;99.90;;;;;;5030952;28;20193;-64
2022/11/12 04:44:59;;;;;;;14.63;8.83;;;6.40;99.90;;;;;;5015434;28;20230;-64
2022/11/12 04:47:37;;;;;;;11.10;8.30;;;6.30;99.90;;;;;;5003424;28;20202;-64
2022/11/12 04:50:12;;;;;;;9.63;7.80;;;6.30;99.90;;;;;;5030265;28;20205;-64
2022/11/12 04:52:38;;;;;;;12.27;7.93;;;6.30;99.90;;;;;;5021596;28;20190;-64
2022/11/12 04:55:04;;;;;;;15.00;8.90;;;6.30;99.90;;;;;;5024838;28;20199;-65
2022/11/12 04:57:30;;;;;;;11.67;7.80;;;6.30;99.90;;;;;;5003521;28;20639;-65
2022/11/12 04:59:55;;;;;;;9.90;7.80;;;6.30;99.90;;;;;;5031437;28;20183;-64
2022/11/12 05:02:21;;;;;;;13.80;8.10;;;6.20;99.90;;;;;;5029625;28;20700;-65
2022/11/12 05:04:47;;;;;;;13.60;8.37;;;6.20;99.90;;;;;;5025506;28;20623;-65
2022/11/12 05:07:13;;;;;;;16.60;9.60;;;6.20;99.90;;;;;;5028043;28;20265;-65
2022/11/12 05:09:39;;;;;;;17.37;9.87;;;6.20;99.90;;;;;;5031046;28;20191;-65
2022/11/12 05:12:05;;;;;;;12.00;8.30;;;6.20;99.90;;;;;;5024597;28;20170;-64
2022/11/12 05:14:31;;;;;;;13.97;9.23;;;6.10;99.90;;;;;;5026595;28;20191;-64
2022/11/12 05:16:57;;;;;;;11.63;8.07;;;6.20;99.90;;;;;;5013674;28;20187;-64
2022/11/12 05:19:22;;;;;;;14.70;8.20;;;6.20;99.90;;;;;;5028880;28;20647;-67
2022/11/12 05:22:06;;;;;;;10.37;7.77;;;6.10;99.90;;;;;;5030966;28;20191;-64
2022/11/12 05:24:38;;;;;;;11.67;7.50;;;6.10;99.90;;;;;;5017216;28;20186;-64
2022/11/12 05:27:09;;;;;;;13.13;7.90;;;6.10;99.90;;;;;;5024612;28;20240;-65
2022/11/12 05:29:35;;;;;;;11.30;8.40;;;6.10;99.90;;;;;;5029639;28;20190;-65
2022/11/12 05:32:01;;;;;;;16.13;8.17;;;6.10;99.90;;;;;;5031547;28;20214;-65
2022/11/12 05:34:27;;;;;;;10.97;8.37;;;6.10;99.90;;;;;;5030502;28;20282;-64
2022/11/12 05:36:53;;;;;;;10.70;8.17;;;6.10;99.90;;;;;;5031167;28;20229;-64
2022/11/12 05:39:18;;;;;;;11.63;8.87;;;6.10;99.90;;;;;;5031985;28;20656;-65
2022/11/12 05:41:44;;;;;;;12.93;8.23;;;6.00;99.90;;;;;;5030182;28;20191;-65
2022/11/12 05:44:10;;;;;;;9.83;6.97;;;6.00;99.90;;;;;;5031489;28;20647;-65
2022/11/12 05:46:36;;;;;;;9.77;8.20;;;6.10;99.90;;;;;;5026531;28;20187;-65
2022/11/12 05:49:01;;;;;;;11.10;8.73;;;6.00;99.90;;;;;;5029844;28;20555;-65
2022/11/12 05:51:27;;;;;;;13.43;8.57;;;6.00;99.90;;;;;;5023073;28;20186;-65
2022/11/12 05:53:52;;;;;;;7.87;7.07;;;6.00;99.90;;;;;;5024452;28;20194;-65
2022/11/12 05:56:18;;;;;;;9.30;7.30;;;6.00;99.90;;;;;;5035384;28;20215;-64
2022/11/12 05:58:44;;;;;;;12.43;8.00;;;6.00;99.90;;;;;;5030988;28;20229;-64
2022/11/12 06:01:10;;;;;;;16.17;8.13;;;6.00;99.90;;;;;;5035665;28;20637;-63
2022/11/12 06:03:35;;;;;;;15.03;9.47;;;6.00;99.90;;;;;;5030613;28;20244;-64
2022/11/12 06:06:01;;;;;;;12.33;7.77;;;6.00;99.90;;;;;;5033137;28;20189;-64
2022/11/12 06:08:27;;;;;;;12.33;9.00;;;6.00;99.90;;;;;;5033590;28;20264;-65
2022/11/12 06:10:54;;;;;;;13.13;8.90;;;6.00;99.90;;;;;;5035298;28;20186;-65
2022/11/12 06:13:21;;;;;;;16.07;9.93;;;6.00;99.90;;;;;;5035422;28;20610;-64
2022/11/12 06:15:47;;;;;;;11.60;8.50;;;6.00;99.90;;;;;;5030069;28;20198;-65
2022/11/12 06:18:13;;;;;;;12.53;8.47;;;6.00;99.90;;;;;;5034335;28;20186;-65
2022/11/12 06:20:39;;;;;;;10.90;8.03;;;6.00;99.90;;;;;;5017587;28;20195;-64
2022/11/12 06:23:04;;;;;;;14.27;8.37;;;6.00;99.90;;;;;;5027824;28;20187;-64
2022/11/12 06:25:30;;;;;;;11.47;8.37;;;6.00;99.90;;;;;;5034930;28;20187;-63
2022/11/12 06:27:56;;;;;;;12.97;8.17;;;6.00;99.90;;;;;;5032231;28;20327;-64
2022/11/12 06:30:22;;;;;;;12.80;8.80;;;6.00;99.90;;;;;;5033805;28;20660;-64
2022/11/12 06:32:48;;;;;;;12.30;8.97;;;6.00;99.90;;;;;;5030521;28;20194;-64
2022/11/12 06:35:15;;;;;;;12.23;8.40;;;6.00;99.90;;;;;;5016726;28;20184;-64
2022/11/12 06:37:41;;;;;;;9.63;7.40;;;6.00;99.90;;;;;;5016447;28;20699;-64
2022/11/12 06:40:07;;;;;;;12.60;8.87;;;5.90;99.90;;;;;;5033610;28;20286;-65
2022/11/12 06:42:33;;;;;;;10.07;7.93;;;6.00;99.90;;;;;;5028123;28;20182;-64
2022/11/12 06:44:59;;;;;;;8.60;7.03;;;5.90;99.90;;;;;;5025666;28;20186;-66
2022/11/12 06:47:24;;;;;;;14.17;7.83;;;5.90;99.90;;;;;;5023388;28;20273;-67
2022/11/12 06:49:50;;;;;;;13.67;7.70;;;6.00;99.90;;;;;;5032772;28;20204;-65
2022/11/12 06:52:16;;;;;;;10.47;7.67;;;5.90;99.90;;;;;;5028505;28;20193;-65
2022/11/12 06:54:42;;;;;;;10.17;6.97;;;5.90;99.90;;;;;;5004019;28;20196;-65
2022/11/12 06:57:08;;;;;;;13.10;7.23;;;5.90;99.90;;;;;;5034390;28;20648;-65
2022/11/12 06:59:33;;;;;;;14.07;7.83;;;6.00;99.90;;;;;;5033342;28;20694;-64
2022/11/12 07:01:59;;;;;;;15.47;8.57;;;6.00;99.90;;;;;;5030193;28;20683;-63
2022/11/12 07:04:25;;;;;;;12.77;7.47;;;6.00;99.90;;;;;;5033069;28;20187;-64
2022/11/12 07:06:50;;;;;;;9.77;7.53;;;6.00;99.90;;;;;;5034175;28;20210;-65
2022/11/12 07:09:16;;;;;;;12.97;8.20;;;6.00;99.90;;;;;;5031799;28;20652;-65
2022/11/12 07:11:42;;;;;;;12.50;8.43;;;6.00;99.90;;;;;;5032806;28;20233;-65
2022/11/12 07:14:08;;;;;;;11.40;7.53;;;6.00;99.90;;;;;;5034530;28;20175;-65
2022/11/12 07:16:34;;;;;;;9.90;6.77;;;6.00;99.90;;;;;;5028719;28;20242;-64
2022/11/12 07:19:00;;;;;;;10.33;7.17;;;6.10;99.90;;;;;;5026888;28;20179;-66
2022/11/12 07:21:25;;;;;;;11.20;7.70;;;6.10;99.90;;;;;;5027154;28;20179;-64
2022/11/12 07:23:52;;;;;;;8.03;7.20;;;6.10;99.90;;;;;;5017077;28;20197;-64
2022/11/12 07:26:19;;;;;;;12.30;7.57;;;6.10;99.90;;;;;;5023648;28;20195;-64
2022/11/12 07:28:47;;;;;;;15.33;8.50;;;6.20;99.90;;;;;;5029375;28;20227;-64
2022/11/12 07:31:14;;;;;;;12.00;8.53;;;6.30;99.90;;;;;;5032927;28;20540;-64
2022/11/12 07:33:41;;;;;;;13.43;8.67;;;6.40;99.90;;;;;;5022339;28;20194;-65
2022/11/12 07:36:15;;;;;;;12.73;8.97;;;6.50;99.90;;;;;;5027311;28;20561;-65
2022/11/12 07:38:42;;;;;;;14.13;9.03;;;6.60;99.90;;;;;;5034343;28;20376;-66
2022/11/12 07:41:19;;;;;;;14.80;9.43;;;6.70;99.90;;;;;;5020650;28;20179;-65
2022/11/12 07:43:46;;;;;;;13.23;7.83;;;6.80;99.90;;;;;;5023707;28;20183;-70
2022/11/12 07:46:24;;;;;;;12.57;8.37;;;6.80;99.90;;;;;;5029440;28;20262;-65
2022/11/12 07:48:50;;;;;;;13.40;8.27;;;6.80;99.90;;;;;;5022762;28;20285;-64
2022/11/12 07:51:21;;;;;;;15.20;8.57;;;6.80;99.90;;;;;;5029861;28;20194;-68
2022/11/12 07:53:49;;;;;;;12.37;8.50;;;6.90;99.90;;;;;;5032247;28;20652;-70
2022/11/12 07:56:20;;;;;;;15.07;9.47;;;6.90;99.90;;;;;;5033654;28;20650;-67
2022/11/12 07:58:47;;;;;;;13.77;8.37;;;6.90;99.90;;;;;;5020520;28;20641;-65
2022/11/12 08:01:39;;;;;;;15.03;9.03;;;7.00;99.90;;;;;;5023069;28;20233;-64
2022/11/12 08:04:08;;;;;;;19.40;9.67;;;7.10;99.90;;;;;;5022015;28;20191;-65
2022/11/12 08:06:34;;;;;;;16.60;10.17;;;7.10;99.90;;;;;;5028033;28;20609;-66
2022/11/12 08:09:03;;;;;;;18.43;10.33;;;7.30;99.90;;;;;;5017842;28;20193;-67
2022/11/12 08:11:29;;;;;;;18.10;10.80;;;7.40;99.90;;;;;;5018458;28;20191;-66
2022/11/12 08:13:55;;;;;;;14.53;9.70;;;7.50;99.90;;;;;;5014119;28;20174;-65
2022/11/12 08:16:20;;;;;;;16.63;10.87;;;7.50;99.90;;;;;;5012052;28;20262;-69
2022/11/12 08:18:46;;;;;;;17.00;11.57;;;7.60;99.90;;;;;;5014336;28;20260;-65
2022/11/12 08:21:15;;;;;;;16.20;10.37;;;7.60;99.90;;;;;;5010692;28;20218;-66
2022/11/12 08:23:41;;;;;;;15.73;10.47;;;7.70;99.90;;;;;;5011866;28;20798;-66
2022/11/12 08:26:10;;;;;;;13.50;9.73;;;7.80;99.90;;;;;;5017659;28;20382;-65
2022/11/12 08:28:36;;;;;;;16.30;11.07;;;7.80;99.90;;;;;;5021565;28;20233;-65
2022/11/12 08:31:07;;;;;;;15.47;10.13;;;7.80;99.90;;;;;;5020540;28;20870;-65
2022/11/12 08:33:34;;;;;;;20.57;10.27;;;7.90;99.90;;;;;;5011994;28;20508;-66
2022/11/12 08:36:08;;;;;;;19.10;11.30;;;7.90;99.90;;;;;;5014844;28;20182;-65
2022/11/12 08:38:34;;;;;;;16.90;9.73;;;8.00;99.90;;;;;;5026495;28;20222;-65
2022/11/12 08:41:02;;;;;;;16.00;10.63;;;8.10;99.90;;;;;;5018485;28;20241;-67
2022/11/12 08:43:28;;;;;;;16.20;10.67;;;8.10;99.90;;;;;;5027640;28;20269;-65
2022/11/12 08:45:56;;;;;;;19.80;12.13;;;8.30;99.90;;;;;;5028203;28;20266;-65
2022/11/12 08:48:22;;;;;;;14.10;9.40;;;8.40;99.90;;;;;;5024259;28;20211;-67
2022/11/12 08:50:47;;;;;;;18.77;10.87;;;8.40;99.90;;;;;;5028806;28;20197;-67
2022/11/12 08:53:13;;;;;;;18.13;12.57;;;8.40;99.90;;;;;;5025713;28;20179;-65
2022/11/12 08:55:39;;;;;;;14.57;11.47;;;8.40;99.90;;;;;;5013089;28;20187;-66
2022/11/12 08:58:05;;;;;;;20.30;14.33;;;8.40;99.90;;;;;;5019650;28;20551;-66
2022/11/12 09:00:37;;;;;;;18.47;12.73;;;8.50;99.90;;;;;;5023535;28;20222;-65
2022/11/12 09:03:04;;;;;;;18.73;11.40;;;8.50;99.90;;;;;;5019414;28;20186;-66
2022/11/12 09:05:30;;;;;;;20.47;12.40;;;8.60;99.90;;;;;;5027397;28;20539;-67
2022/11/12 09:07:57;;;;;;;18.63;11.27;;;8.70;99.90;;;;;;5024798;28;20259;-66
2022/11/12 09:10:23;;;;;;;16.13;10.70;;;8.80;99.90;;;;;;5017134;28;20193;-66
2022/11/12 09:12:52;;;;;;;16.23;10.57;;;8.90;99.90;;;;;;5016574;28;20624;-68
2022/11/12 09:15:23;;;;;;;13.73;9.27;;;9.20;99.90;;;;;;5025286;28;20256;-66
2022/11/12 09:18:00;;;;;;;16.13;10.13;;;9.40;99.90;;;;;;5017318;28;20175;-66
2022/11/12 09:20:27;;;;;;;17.33;8.93;;;9.70;99.90;;;;;;5010246;28;20605;-66
2022/11/12 09:22:58;;;;;;;13.67;8.50;;;9.80;99.90;;;;;;5017714;28;20190;-66
2022/11/12 09:25:23;;;;;;;19.53;9.17;;;9.90;99.90;;;;;;5013940;28;20175;-67
2022/11/12 09:27:49;;;;;;;13.13;9.53;;;10.10;99.90;;;;;;5015829;28;20282;-66
2022/11/12 09:30:15;;;;;;;14.00;8.17;;;10.10;99.90;;;;;;5019318;28;20368;-67
2022/11/12 09:32:40;;;;;;;11.90;8.50;;;10.00;99.90;;;;;;5027895;28;20265;-66
2022/11/12 09:35:06;;;;;;;11.67;8.00;;;10.10;99.90;;;;;;5018849;28;20186;-65
2022/11/12 09:37:32;;;;;;;15.13;7.67;;;10.20;99.90;;;;;;5028250;28;20187;-67
2022/11/12 09:39:58;;;;;;;14.20;9.30;;;10.20;99.90;;;;;;5027054;28;20183;-67
2022/11/12 09:42:24;;;;;;;18.47;9.43;;;10.50;99.90;;;;;;5017495;28;20641;-65
2022/11/12 09:45:21;;;;;;;13.10;8.40;;;10.70;99.90;;;;;;5037140;28;20199;-67
2022/11/12 09:47:51;;;;;;;14.90;9.30;;;10.70;99.90;;;;;;5016654;28;20226;-66
2022/11/12 09:50:23;;;;;;;12.37;8.33;;;10.60;99.90;;;;;;5042621;28;20199;-66
2022/11/12 09:52:56;;;;;;;9.80;7.35;;;10.70;99.90;;;;;;5021947;28;20616;-67
2022/11/12 09:55:30;;;;;;;12.15;7.90;;;10.60;99.90;;;;;;5024867;28;20207;-67
2022/11/12 09:57:56;;;;;;;16.27;9.25;;;10.50;99.90;;;;;;5027611;28;20190;-68
2022/11/12 10:00:22;;;;;;;15.27;9.63;;;10.50;99.90;;;;;;5028648;28;20210;-66
2022/11/12 10:03:27;;;;;;;16.52;9.13;;;10.40;99.90;;;;;;5013344;28;20615;-68
2022/11/12 10:06:02;;;;;;;15.30;10.18;;;10.40;99.90;;;;;;5015319;28;20269;-66
2022/11/12 10:08:52;;;;;;;14.82;8.98;;;10.50;99.90;;;;;;5023949;28;20202;-69
2022/11/12 10:11:30;;;;;;;17.90;10.75;;;10.60;99.90;;;;;;5015496;28;20185;-66
2022/11/12 10:14:30;;;;;;;13.30;8.75;;;10.80;99.90;;;;;;5020443;28;20340;-66
2022/11/12 10:17:18;;;;;;;15.05;9.02;;;10.90;99.90;;;;;;5019368;28;20552;-67
2022/11/12 10:20:07;;;;;;;12.50;7.97;;;11.10;99.90;;;;;;5029882;28;20194;-66
2022/11/12 10:22:55;;;;;;;10.80;7.70;;;11.30;99.90;;;;;;5026747;28;20222;-68
2022/11/12 10:25:21;;;;;;;10.43;7.70;;;11.30;99.90;;;;;;5021390;28;20186;-66
2022/11/12 10:27:48;;;;;;;8.82;6.60;;;11.20;99.90;;;;;;5022192;28;20319;-67
2022/11/12 10:30:19;;;;;;;9.73;6.90;;;11.30;99.90;;;;;;5025099;28;20250;-66
2022/11/12 10:32:46;;;;;;;10.45;6.93;;;11.40;99.90;;;;;;5031623;28;20178;-66
2022/11/12 10:35:18;;;;;;;12.98;7.47;;;11.40;99.90;;;;;;5034203;28;20692;-67
2022/11/12 10:37:48;;;;;;;11.23;7.45;;;11.60;99.90;;;;;;5035034;28;20561;-69
2022/11/12 10:40:19;;;;;;;9.95;7.38;;;11.70;99.90;;;;;;5034485;28;20281;-67
2022/11/12 10:43:04;;;;;;;9.80;7.07;;;11.90;99.90;;;;;;5031708;28;20526;-67
2022/11/12 10:45:30;;;;;;;11.48;6.60;;;11.90;99.90;;;;;;5024483;28;20229;-66
2022/11/12 10:47:56;;;;;;;13.38;8.73;;;11.80;99.90;;;;;;5027167;28;20211;-67
2022/11/12 10:50:25;;;;;;;14.70;9.93;;;12.00;99.90;;;;;;5027629;28;20306;-66
2022/11/12 10:52:57;;;;;;;14.48;9.65;;;12.00;99.90;;;;;;5021232;28;20210;-67
2022/11/12 10:55:26;;;;;;;11.10;8.05;;;11.90;99.90;;;;;;5042470;28;20641;-67
2022/11/12 10:58:10;;;;;;;10.00;7.95;;;11.70;99.90;;;;;;5027988;28;20690;-67
2022/11/12 11:00:50;;;;;;;15.90;8.82;;;11.90;99.90;;;;;;5037767;28;20238;-67
2022/11/12 11:03:20;;;;;;;10.45;7.57;;;12.00;99.90;;;;;;5028060;28;20270;-67
2022/11/12 11:06:02;;;;;;;13.48;8.18;;;12.20;99.90;;;;;;5017862;28;20243;-67
2022/11/12 11:08:48;;;;;;;10.43;7.60;;;12.20;99.90;;;;;;5031111;28;20202;-66
2022/11/12 11:11:19;;;;;;;11.05;7.97;;;12.20;99.90;;;;;;5024471;28;20195;-70
2022/11/12 11:13:46;;;;;;;8.95;7.45;;;12.50;99.90;;;;;;5022896;28;20613;-66
2022/11/12 11:16:47;;;;;;;12.85;7.43;;;12.40;99.90;;;;;;5026567;28;20183;-69
2022/11/12 11:19:13;;;;;;;11.85;6.68;;;12.40;99.90;;;;;;5024756;28;20187;-68
2022/11/12 11:21:38;;;;;;;12.73;7.53;;;12.40;99.90;;;;;;5012969;28;20188;-68
2022/11/12 11:24:18;;;;;;;11.02;7.07;;;12.40;99.90;;;;;;5022713;28;20190;-66
2022/11/12 11:27:01;;;;;;;11.30;6.55;;;12.40;99.90;;;;;;5011939;28;20268;-67
2022/11/12 11:29:44;;;;;;;9.98;6.45;;;12.50;99.90;;;;;;5012947;28;20290;-67
2022/11/12 11:33:03;;;;;;;9.68;6.90;;;12.60;99.90;;;;;;5018734;28;20183;-65
2022/11/12 11:36:01;;;;;;;11.00;7.22;;;12.70;99.90;;;;;;4944195;29;20251;-70
2022/11/12 11:38:52;;;;;;;7.72;5.63;;;12.80;99.90;;;;;;5040259;28;20589;-67
2022/11/12 11:41:29;;;;;;;8.23;6.05;;;13.10;99.90;;;;;;5027254;28;20249;-66
2022/11/12 11:43:57;;;;;;;10.95;6.95;;;13.20;99.90;;;;;;5029342;28;20639;-68
2022/11/12 11:46:23;;;;;;;10.88;7.80;;;13.20;99.90;;;;;;5020550;28;20600;-67
2022/11/12 11:49:19;;;;;;;8.82;6.88;;;13.30;99.90;;;;;;5016699;28;20280;-67
2022/11/12 11:52:05;;;;;;;7.85;5.85;;;13.50;99.90;;;;;;5012466;28;20194;-71
2022/11/12 11:55:05;;;;;;;5.97;5.38;;;13.70;99.90;;;;;;5024765;28;20647;-67
2022/11/12 11:57:56;;;;;;;8.27;5.10;;;13.90;99.90;;;;;;5027849;28;20693;-69
2022/11/12 12:00:24;;;;;;;5.88;4.03;;;13.80;99.90;;;;;;4997555;28;20217;-67
2022/11/12 12:03:09;;;;;;;6.78;4.28;;;13.90;99.90;;;;;;5028147;28;20254;-67
2022/11/12 12:06:10;;;;;;;6.07;4.00;;;13.90;99.90;;;;;;5027123;28;20666;-68
2022/11/12 12:08:53;;;;;;;5.47;3.78;;;13.80;99.90;;;;;;4947866;29;20705;-66
2022/11/12 12:11:40;;;;;;;7.05;4.95;;;13.90;99.90;;;;;;5011718;28;20273;-68
2022/11/12 12:14:18;;;;;;;6.97;4.10;;;13.90;99.90;;;;;;5080503;28;20989;-69
2022/11/12 12:16:50;;;;;;;7.15;5.20;;;14.20;99.90;;;;;;5077318;28;20169;-70
2022/11/12 12:19:31;;;;;;;5.22;4.25;;;14.20;99.90;;;;;;5067541;28;20181;-69
2022/11/12 12:21:58;;;;;;;6.47;3.85;;;14.30;99.90;;;;;;5076651;28;20173;-69
2022/11/12 12:25:06;;;;;;;8.38;4.05;;;14.50;99.90;;;;;;5068733;28;20181;-70
2022/11/12 12:27:37;;;;;;;6.63;3.92;;;14.50;99.90;;;;;;5099964;28;20181;-69
2022/11/12 12:30:12;;;;;;;4.07;3.67;;;14.70;99.90;;;;;;5065718;28;20180;-69
2022/11/12 12:32:48;;;;;;;7.30;3.67;;;15.10;99.90;;;;;;5070878;28;20208;-69
2022/11/12 12:35:49;;;;;;;6.00;3.60;;;15.10;99.90;;;;;;5065034;28;20212;-69
2022/11/12 12:38:22;;;;;;;3.33;3.03;;;15.00;99.90;;;;;;5071755;28;20208;-69
2022/11/12 12:40:57;;;;;;;4.32;3.40;;;14.80;99.90;;;;;;5082270;28;20177;-69
2022/11/12 12:43:58;;;;;;;5.15;3.88;;;14.90;99.90;;;;;;5070133;28;20185;-68
2022/11/12 12:46:27;;;;;;;3.80;3.40;;;15.10;99.90;;;;;;5056001;28;20204;-69
2022/11/12 12:48:55;;;;;;;6.80;4.28;;;15.10;99.90;;;;;;5070299;28;20185;-69
2022/11/12 12:51:21;;;;;;;4.35;3.95;;;14.90;99.90;;;;;;5064121;28;20546;-69
2022/11/12 12:53:47;;;;;;;6.32;4.40;;;14.80;99.90;;;;;;5052586;28;20300;-69
2022/11/12 12:56:13;;;;;;;4.60;3.92;;;15.00;99.90;;;;;;5065490;28;20269;-69
2022/11/12 12:58:44;;;;;;;4.22;3.17;;;15.10;99.90;;;;;;5064625;28;20651;-69
2022/11/12 13:01:19;;;;;;;3.60;3.25;;;15.00;99.90;;;;;;5064896;28;20268;-69
2022/11/12 13:04:02;;;;;;;5.07;3.58;;;14.90;99.90;;;;;;5071534;28;20284;-69
2022/11/12 13:06:38;;;;;;;4.38;3.40;;;14.80;99.90;;;;;;5062686;28;20260;-68
2022/11/12 13:09:14;;;;;;;4.00;3.35;;;14.90;99.90;;;;;;5076801;28;20180;-70
2022/11/12 13:14:36;;;;;;;7.05;3.40;;;14.80;99.90;;;;;;5064721;28;20585;-69
2022/11/12 13:17:02;;;;;;;3.70;3.40;;;14.90;99.90;;;;;;5077380;28;20184;-69
2022/11/12 13:19:38;;;;;;;5.75;3.92;;;15.10;99.90;;;;;;5063862;28;20178;-68